Snow/Ice From: 23-10-2018 22:46 Until: 24-10-2018 08:00 warning for: Snow/Ice Level: Yellow info button
suomi:
Liikennesää: Ajokeli on huono tienpintojen jäätymisen vuoksi.

svenska:
Trafikvädret: Väglaget är dåligt p.g.a. tillfrysning av vägytor.

english:
Traffic weather warning: Bad road conditions are expected because of ice-covered roads. 


Thunder radar more information blitzortung!


Löydät sääaseman tiedot myös:

European Weather Network

Finland Weather Exchange

Weather Underground

AWEKAS



Weather Underground säähistoriasivu

Päivittäin yhteenveto Heinäkuu 7, 2017 Yksiköt:  Metriset    Englantilaiset   Molemmat
« Edellinen Päivä
Seuraava Päivä »
Päivittäin Viikoittain Kuukausittain Vuosittain Mukautettu
  Korkea: Matala: Keskiarvo:
Lämpötila: -17.8 °C 4.7 °C 13.3 °C
Kastepiste: -17.8 °C 3.8 °C 7.2 °C
Kosteus: Humidity % 41 % 69 %
Tuulen nopeus: 0 km/h 0 km/h 0.3 km/h
Tuulenpuuska: 0 km/h - -
Tuuli:- - West
Ilmanpaine: 0 hPa 1011.1 hPa -
Sade: 0 mm    
Historical Graphs
 
 
Taulukkotiedot Heinäkuu 7, 2017
Aika Lämpötila Kastepiste Ilmanpaine Tuuli Tuulen nopeus Tuulenpuuska Kosteus Sademäärä (tunneittain)
-17.8 °C -17.8 °C 0 hPa Calm     Humidity % 0 mm
00:00 8.1 °C 6.4 °C 1012.8 hPa Calm     89 % 0 mm
00:15 7.8 °C 6.1 °C 1012.8 hPa Calm     89 % 0 mm
00:30 7.4 °C 5.7 °C 1012.8 hPa Calm     89 % 0 mm
00:45 7.1 °C 5.5 °C 1012.8 hPa Calm     90 % 0 mm
01:00 6.6 °C 5.2 °C 1012.8 hPa Calm     91 % 0 mm
01:15 6.1 °C 4.8 °C 1012.8 hPa Calm     91 % 0 mm
01:30 5.8 °C 4.6 °C 1012.8 hPa Calm     92 % 0 mm
01:45 5.3 °C 4.1 °C 1012.8 hPa Calm     92 % 0 mm
02:00 4.9 °C 3.9 °C 1012.8 hPa Calm     93 % 0 mm
02:15 4.7 °C 3.8 °C 1012.8 hPa Calm     94 % 0 mm
02:30 4.8 °C 3.9 °C 1012.8 hPa Calm     94 % 0 mm
02:45 4.9 °C 4.2 °C 1012.8 hPa Calm     95 % 0 mm
03:00 4.9 °C 4.1 °C 1012.8 hPa Calm     94 % 0 mm
03:15 5.1 °C 4.3 °C 1012.8 hPa Calm     95 % 0 mm
03:30 5.2 °C 4.4 °C 1012.8 hPa Calm     95 % 0 mm
03:45 5 °C 4.3 °C 1012.8 hPa Calm     95 % 0 mm
04:00 4.8 °C 4 °C 1012.8 hPa Calm     95 % 0 mm
04:15 4.8 °C 4.1 °C 1012.8 hPa Calm     95 % 0 mm
04:30 4.9 °C 4.4 °C 1012.8 hPa Calm   3.2 km/h 96 % 0 mm
04:45 5.6 °C 5 °C 1012.8 hPa Calm   3.2 km/h 96 % 0 mm
05:00 6 °C 5.4 °C 1012.4 hPa Calm   4.8 km/h 96 % 0 mm
05:15 6.2 °C 5.6 °C 1012.4 hPa Calm   4.8 km/h 96 % 0 mm
05:30 6.4 °C 5.8 °C 1012.4 hPa Calm   3.2 km/h 96 % 0 mm
05:45 6.5 °C 5.9 °C 1012.4 hPa Calm     96 % 0 mm
06:00 6.8 °C 6.2 °C 1012.4 hPa Calm   4.8 km/h 96 % 0 mm
06:15 7.2 °C 6.8 °C 1012.4 hPa Calm   4.8 km/h 97 % 0 mm
06:30 7.7 °C 7.3 °C 1012.4 hPa Calm   6.4 km/h 97 % 0 mm
06:45 8.6 °C 8.1 °C 1012.4 hPa SSW 1.6 km/h 6.4 km/h 97 % 0 mm
07:00 8.9 °C 8.3 °C 1012.4 hPa Calm   4.8 km/h 96 % 0 mm
07:15 9.4 °C 8.6 °C 1012.4 hPa Calm   4.8 km/h 95 % 0 mm
07:30 9.9 °C 9.2 °C 1012.4 hPa Calm   4.8 km/h 95 % 0 mm
07:45 10.5 °C 9.6 °C 1012.4 hPa Calm   3.2 km/h 94 % 0 mm
08:00 10.9 °C 9.8 °C 1012.4 hPa Calm     93 % 0 mm
08:15 11.4 °C 10.3 °C 1012.4 hPa Calm     93 % 0 mm
08:30 11.9 °C 10.6 °C 1012.4 hPa Calm     92 % 0 mm
08:45 12.7 °C 11.1 °C 1012.4 hPa Calm   6.4 km/h 90 % 0 mm
09:00 13.4 °C 11.7 °C 1012.4 hPa Calm     89 % 0 mm
09:15 14.3 °C 11.8 °C 1012.4 hPa Calm   1.6 km/h 85 % 0 mm
09:30 15.1 °C 11.9 °C 1012.4 hPa Calm   1.6 km/h 81 % 0 mm
09:45 16 °C 12.5 °C 1012.4 hPa Calm     80 % 0 mm
10:00 16.5 °C 12.8 °C 1012.4 hPa Calm   1.6 km/h 79 % 0 mm
10:15 16.7 °C 12.6 °C 1012.4 hPa Calm   3.2 km/h 77 % 0 mm
10:30 17.3 °C 12.6 °C 1012.4 hPa Calm     74 % 0 mm
10:45 17.8 °C 11.1 °C 1012.4 hPa Calm   6.4 km/h 65 % 0 mm
11:00 18.1 °C 10.5 °C 1012.4 hPa Calm   6.4 km/h 61 % 0 mm
11:15 18.6 °C 9.1 °C 1012.4 hPa WNW 1.6 km/h 8 km/h 54 % 0 mm
11:30 17.3 °C 7.9 °C 1012.4 hPa NW 1.6 km/h 6.4 km/h 54 % 0 mm
11:45 17.3 °C 7.3 °C 1012.4 hPa Calm   9.7 km/h 52 % 0 mm
12:00 17.9 °C 7 °C 1012.1 hPa NW 3.2 km/h 9.7 km/h 49 % 0 mm
12:15 17.8 °C 5.7 °C 1012.1 hPa WNW 1.6 km/h 11.3 km/h 45 % 0 mm
12:30 18.8 °C 6.6 °C 1012.1 hPa NNE 1.6 km/h 9.7 km/h 45 % 0 mm
12:45 18.6 °C 6.1 °C 1012.1 hPa NW 1.6 km/h 6.4 km/h 44 % 0 mm
13:00 19.2 °C 7.9 °C 1012.1 hPa WNW 1.6 km/h 9.7 km/h 48 % 0 mm
13:15 18.3 °C 6.5 °C 1012.1 hPa Calm   6.4 km/h 46 % 0 mm
13:30 19.1 °C 5.8 °C 1012.1 hPa WNW 3.2 km/h 9.7 km/h 42 % 0 mm
13:45 18.8 °C 7 °C 1012.1 hPa NW 1.6 km/h 9.7 km/h 46 % 0 mm
14:00 18.5 °C 8.2 °C 1012.1 hPa NW 1.6 km/h 6.4 km/h 51 % 0 mm
14:15 19.4 °C 6.1 °C 1012.1 hPa NW 1.6 km/h 9.7 km/h 42 % 0 mm
14:30 20.3 °C 7.3 °C 1011.7 hPa Calm   4.8 km/h 43 % 0 mm
14:45 19.9 °C 7.3 °C 1012.1 hPa Calm   8 km/h 44 % 0 mm
15:00 19.3 °C 7.1 °C 1012.1 hPa NW 1.6 km/h 9.7 km/h 45 % 0 mm
15:15 19.1 °C 7.5 °C 1012.1 hPa Calm   3.2 km/h 47 % 0 mm
15:30 18.6 °C 6.7 °C 1012.1 hPa Calm   1.6 km/h 46 % 0 mm
15:45 19.7 °C 6.7 °C 1011.7 hPa NW 3.2 km/h 9.7 km/h 43 % 0 mm
16:00 20 °C 6.3 °C 1011.7 hPa Calm   4.8 km/h 41 % 0 mm
16:15 19.7 °C 6 °C 1011.7 hPa Calm   1.6 km/h 41 % 0 mm
16:30 19.4 °C 8.1 °C 1011.7 hPa Calm   4.8 km/h 48 % 0 mm
16:45 19.1 °C 9.3 °C 1011.7 hPa Calm   3.2 km/h 53 % 0 mm
17:00 18.8 °C 8.1 °C 1011.7 hPa Calm   1.6 km/h 50 % 0 mm
17:15 18.4 °C 8.4 °C 1011.7 hPa Calm     52 % 0 mm
17:30 18.3 °C 9.3 °C 1011.4 hPa Calm     56 % 0 mm
17:45 18.7 °C 8.6 °C 1011.7 hPa Calm     52 % 0 mm
18:00 18.9 °C 9.1 °C 1011.4 hPa Calm     53 % 0 mm
18:15 19.1 °C 8.4 °C 1011.4 hPa Calm     50 % 0 mm
18:30 18.9 °C 9.1 °C 1011.4 hPa Calm     53 % 0 mm
18:45 18.7 °C 9.4 °C 1011.4 hPa Calm     55 % 0 mm
19:00 18.8 °C 9.3 °C 1011.4 hPa Calm   1.6 km/h 54 % 0 mm
19:15 19.2 °C 7.6 °C 1011.4 hPa Calm   1.6 km/h 47 % 0 mm
19:30 19.4 °C 7.2 °C 1011.4 hPa Calm   1.6 km/h 45 % 0 mm
19:45 19.4 °C 7.1 °C 1011.4 hPa Calm   3.2 km/h 45 % 0 mm
20:00 19.5 °C 6.6 °C 1011.4 hPa Calm   1.6 km/h 43 % 0 mm
20:15 19.6 °C 7 °C 1011.1 hPa Calm   1.6 km/h 44 % 0 mm
20:30 18.9 °C 6.7 °C 1011.1 hPa Calm   4.8 km/h 45 % 0 mm
20:45 18.7 °C 6.2 °C 1011.1 hPa Calm   1.6 km/h 44 % 0 mm
21:00 18.1 °C 6.6 °C 1011.4 hPa Calm   3.2 km/h 47 % 0 mm
21:15 17.6 °C 5.8 °C 1011.4 hPa Calm     46 % 0 mm
21:30 17.1 °C 6 °C 1011.4 hPa Calm     48 % 0 mm
21:45 16.7 °C 8.4 °C 1011.4 hPa Calm     58 % 0 mm
22:00 16.1 °C 9 °C 1011.4 hPa Calm     63 % 0 mm
22:15 15.2 °C 8.9 °C 1011.4 hPa Calm     66 % 0 mm
22:30 14.1 °C 8.5 °C 1011.4 hPa Calm     69 % 0 mm
22:45 13.2 °C 8.5 °C 1011.4 hPa Calm     73 % 0 mm
23:00 12.3 °C 8 °C 1011.7 hPa Calm     75 % 0 mm
23:30 11 °C 7.3 °C 1011.7 hPa Calm     78 % 0 mm
23:45 10.5 °C 7.4 °C 1011.7 hPa Calm     81 % 0 mm
Esan sääasema
Terveisin Weather Underground - 2.75 mb

Alkuperäinen skripti  Jim McMurry - jmcmurry@mwt.net Sovitettu myös templatelle  Wim van der Kuil - Leuven-Template.eu

Laitteet joita käytämme:

Sääasema
Davis VP2

Sääasemaohjelma
Cumulus

Sääaseman tietokone
Asus EeePC

Palveluntarjoaja
Suncomet

Davis VP2

Cumulus

Asus EeePC

Suncomet